sensor_id;sensor_type;location;lat;lon;timestamp;P1;durP1;ratioP1;P2;durP2;ratioP2
60502;SDS011;51448;51.660;5.824;2022-09-09T00:01:50;4.88;;;1.70;;
60502;SDS011;51448;51.660;5.824;2022-09-09T00:12:53;4.93;;;2.05;;
60502;SDS011;51448;51.660;5.824;2022-09-09T00:21:03;4.25;;;1.90;;
60502;SDS011;51448;51.660;5.824;2022-09-09T00:23:43;4.18;;;2.40;;
60502;SDS011;51448;51.660;5.824;2022-09-09T00:26:38;5.22;;;2.17;;
60502;SDS011;51448;51.660;5.824;2022-09-09T00:31:38;5.80;;;2.20;;
60502;SDS011;51448;51.660;5.824;2022-09-09T00:36:49;4.82;;;1.92;;
60502;SDS011;51448;51.660;5.824;2022-09-09T00:39:39;4.35;;;1.80;;
60502;SDS011;51448;51.660;5.824;2022-09-09T00:48:04;4.50;;;2.42;;
60502;SDS011;51448;51.660;5.824;2022-09-09T00:56:29;5.45;;;2.10;;
60502;SDS011;51448;51.660;5.824;2022-09-09T00:59:28;6.38;;;2.42;;
60502;SDS011;51448;51.660;5.824;2022-09-09T01:19:03;8.05;;;2.83;;
60502;SDS011;51448;51.660;5.824;2022-09-09T01:21:48;5.32;;;2.70;;
60502;SDS011;51448;51.660;5.824;2022-09-09T01:27:57;8.38;;;2.95;;
60502;SDS011;51448;51.660;5.824;2022-09-09T01:30:30;5.35;;;2.53;;
60502;SDS011;51448;51.660;5.824;2022-09-09T01:33:01;7.10;;;2.67;;
60502;SDS011;51448;51.660;5.824;2022-09-09T01:35:50;5.07;;;2.75;;
60502;SDS011;51448;51.660;5.824;2022-09-09T01:38:28;6.20;;;2.80;;
60502;SDS011;51448;51.660;5.824;2022-09-09T01:40:59;7.75;;;2.40;;
60502;SDS011;51448;51.660;5.824;2022-09-09T01:43:38;7.70;;;2.72;;
60502;SDS011;51448;51.660;5.824;2022-09-09T01:46:05;5.88;;;2.70;;
60502;SDS011;51448;51.660;5.824;2022-09-09T01:48:35;7.03;;;2.65;;
60502;SDS011;51448;51.660;5.824;2022-09-09T01:51:08;6.03;;;2.53;;
60502;SDS011;51448;51.660;5.824;2022-09-09T01:53:39;7.65;;;3.13;;
60502;SDS011;51448;51.660;5.824;2022-09-09T02:02:08;6.75;;;2.63;;
60502;SDS011;51448;51.660;5.824;2022-09-09T02:04:56;5.75;;;2.65;;
60502;SDS011;51448;51.660;5.824;2022-09-09T02:07:50;10.60;;;3.15;;
60502;SDS011;51448;51.660;5.824;2022-09-09T02:13:43;5.25;;;2.90;;
60502;SDS011;51448;51.660;5.824;2022-09-09T02:19:11;7.28;;;2.83;;
60502;SDS011;51448;51.660;5.824;2022-09-09T02:21:59;7.90;;;2.72;;
60502;SDS011;51448;51.660;5.824;2022-09-09T02:24:31;7.05;;;3.13;;
60502;SDS011;51448;51.660;5.824;2022-09-09T02:27:21;6.78;;;3.00;;
60502;SDS011;51448;51.660;5.824;2022-09-09T02:29:51;8.63;;;2.60;;
60502;SDS011;51448;51.660;5.824;2022-09-09T02:32:35;7.30;;;3.05;;
60502;SDS011;51448;51.660;5.824;2022-09-09T02:35:10;7.68;;;3.22;;
60502;SDS011;51448;51.660;5.824;2022-09-09T02:37:44;9.55;;;3.42;;
60502;SDS011;51448;51.660;5.824;2022-09-09T02:40:17;7.38;;;2.88;;
60502;SDS011;51448;51.660;5.824;2022-09-09T02:45:19;9.30;;;2.90;;
60502;SDS011;51448;51.660;5.824;2022-09-09T02:47:59;7.50;;;3.58;;
60502;SDS011;51448;51.660;5.824;2022-09-09T02:51:08;10.63;;;3.60;;
60502;SDS011;51448;51.660;5.824;2022-09-09T02:53:59;7.57;;;3.60;;
60502;SDS011;51448;51.660;5.824;2022-09-09T02:56:46;9.15;;;3.38;;
60502;SDS011;51448;51.660;5.824;2022-09-09T02:59:26;7.25;;;3.35;;
60502;SDS011;51448;51.660;5.824;2022-09-09T03:01:55;5.85;;;3.40;;
60502;SDS011;51448;51.660;5.824;2022-09-09T03:04:24;10.15;;;3.58;;
60502;SDS011;51448;51.660;5.824;2022-09-09T03:06:52;6.75;;;3.05;;
60502;SDS011;51448;51.660;5.824;2022-09-09T03:09:20;8.77;;;3.42;;
60502;SDS011;51448;51.660;5.824;2022-09-09T03:11:50;9.75;;;3.55;;
60502;SDS011;51448;51.660;5.824;2022-09-09T03:14:19;8.88;;;3.20;;
60502;SDS011;51448;51.660;5.824;2022-09-09T03:16:48;8.40;;;3.55;;
60502;SDS011;51448;51.660;5.824;2022-09-09T03:19:16;7.22;;;3.42;;
60502;SDS011;51448;51.660;5.824;2022-09-09T03:21:44;9.02;;;3.47;;
60502;SDS011;51448;51.660;5.824;2022-09-09T03:24:13;7.18;;;3.33;;
60502;SDS011;51448;51.660;5.824;2022-09-09T03:26:41;8.00;;;3.50;;
60502;SDS011;51448;51.660;5.824;2022-09-09T03:29:14;9.68;;;3.53;;
60502;SDS011;51448;51.660;5.824;2022-09-09T03:31:42;10.68;;;3.70;;
60502;SDS011;51448;51.660;5.824;2022-09-09T03:34:11;11.35;;;3.67;;
60502;SDS011;51448;51.660;5.824;2022-09-09T03:36:40;7.25;;;3.17;;
60502;SDS011;51448;51.660;5.824;2022-09-09T03:39:08;10.60;;;3.42;;
60502;SDS011;51448;51.660;5.824;2022-09-09T03:41:36;9.15;;;3.53;;
60502;SDS011;51448;51.660;5.824;2022-09-09T03:44:05;8.02;;;3.63;;
60502;SDS011;51448;51.660;5.824;2022-09-09T03:46:37;12.30;;;3.72;;
60502;SDS011;51448;51.660;5.824;2022-09-09T03:49:05;10.20;;;3.45;;
60502;SDS011;51448;51.660;5.824;2022-09-09T03:51:32;9.52;;;3.83;;
60502;SDS011;51448;51.660;5.824;2022-09-09T03:56:35;10.50;;;3.30;;
60502;SDS011;51448;51.660;5.824;2022-09-09T03:59:03;6.45;;;3.17;;
60502;SDS011;51448;51.660;5.824;2022-09-09T04:01:31;9.93;;;3.70;;
60502;SDS011;51448;51.660;5.824;2022-09-09T04:03:59;9.95;;;3.38;;
60502;SDS011;51448;51.660;5.824;2022-09-09T04:06:29;8.93;;;3.70;;
60502;SDS011;51448;51.660;5.824;2022-09-09T04:08:58;8.95;;;3.70;;
60502;SDS011;51448;51.660;5.824;2022-09-09T04:11:26;10.27;;;3.80;;
60502;SDS011;51448;51.660;5.824;2022-09-09T04:13:57;8.93;;;4.17;;
60502;SDS011;51448;51.660;5.824;2022-09-09T04:16:24;10.63;;;4.28;;
60502;SDS011;51448;51.660;5.824;2022-09-09T04:18:53;10.10;;;3.72;;
60502;SDS011;51448;51.660;5.824;2022-09-09T04:21:20;9.05;;;3.70;;
60502;SDS011;51448;51.660;5.824;2022-09-09T04:23:48;9.20;;;3.80;;
60502;SDS011;51448;51.660;5.824;2022-09-09T04:26:15;8.90;;;4.18;;
60502;SDS011;51448;51.660;5.824;2022-09-09T04:28:44;9.85;;;3.58;;
60502;SDS011;51448;51.660;5.824;2022-09-09T04:31:18;8.32;;;3.75;;
60502;SDS011;51448;51.660;5.824;2022-09-09T04:33:53;11.40;;;4.18;;
60502;SDS011;51448;51.660;5.824;2022-09-09T04:36:21;10.75;;;3.90;;
60502;SDS011;51448;51.660;5.824;2022-09-09T04:38:53;11.38;;;3.88;;
60502;SDS011;51448;51.660;5.824;2022-09-09T04:41:21;11.80;;;4.03;;
60502;SDS011;51448;51.660;5.824;2022-09-09T04:43:51;15.75;;;3.75;;
60502;SDS011;51448;51.660;5.824;2022-09-09T04:46:21;9.82;;;3.95;;
60502;SDS011;51448;51.660;5.824;2022-09-09T04:48:50;10.07;;;3.70;;
60502;SDS011;51448;51.660;5.824;2022-09-09T04:51:19;13.88;;;3.70;;
60502;SDS011;51448;51.660;5.824;2022-09-09T04:53:48;7.75;;;3.65;;
60502;SDS011;51448;51.660;5.824;2022-09-09T04:56:18;9.77;;;3.35;;
60502;SDS011;51448;51.660;5.824;2022-09-09T04:58:57;9.93;;;3.75;;
60502;SDS011;51448;51.660;5.824;2022-09-09T05:01:36;10.63;;;4.05;;
60502;SDS011;51448;51.660;5.824;2022-09-09T05:04:05;11.50;;;3.60;;
60502;SDS011;51448;51.660;5.824;2022-09-09T05:06:33;8.98;;;3.95;;
60502;SDS011;51448;51.660;5.824;2022-09-09T05:09:04;9.15;;;3.33;;
60502;SDS011;51448;51.660;5.824;2022-09-09T05:11:31;10.23;;;3.55;;
60502;SDS011;51448;51.660;5.824;2022-09-09T05:14:20;8.90;;;3.38;;
60502;SDS011;51448;51.660;5.824;2022-09-09T05:16:47;9.05;;;3.47;;
60502;SDS011;51448;51.660;5.824;2022-09-09T05:19:16;10.85;;;3.60;;
60502;SDS011;51448;51.660;5.824;2022-09-09T05:21:49;9.50;;;3.40;;
60502;SDS011;51448;51.660;5.824;2022-09-09T05:24:21;10.77;;;3.42;;
60502;SDS011;51448;51.660;5.824;2022-09-09T05:26:53;11.30;;;3.15;;
60502;SDS011;51448;51.660;5.824;2022-09-09T05:29:20;10.43;;;3.33;;
60502;SDS011;51448;51.660;5.824;2022-09-09T05:31:48;9.90;;;3.40;;
60502;SDS011;51448;51.660;5.824;2022-09-09T05:34:20;14.20;;;3.35;;
60502;SDS011;51448;51.660;5.824;2022-09-09T05:36:49;11.55;;;2.85;;
60502;SDS011;51448;51.660;5.824;2022-09-09T05:39:17;12.73;;;3.30;;
60502;SDS011;51448;51.660;5.824;2022-09-09T05:41:45;13.63;;;3.78;;
60502;SDS011;51448;51.660;5.824;2022-09-09T05:44:13;12.57;;;3.40;;
60502;SDS011;51448;51.660;5.824;2022-09-09T05:46:40;10.60;;;3.70;;
60502;SDS011;51448;51.660;5.824;2022-09-09T05:49:08;9.77;;;3.20;;
60502;SDS011;51448;51.660;5.824;2022-09-09T05:51:39;14.73;;;3.90;;
60502;SDS011;51448;51.660;5.824;2022-09-09T05:54:10;11.13;;;3.35;;
60502;SDS011;51448;51.660;5.824;2022-09-09T05:56:42;13.88;;;3.45;;
60502;SDS011;51448;51.660;5.824;2022-09-09T05:59:13;10.25;;;3.00;;
60502;SDS011;51448;51.660;5.824;2022-09-09T06:01:41;10.65;;;3.28;;
60502;SDS011;51448;51.660;5.824;2022-09-09T06:04:17;8.18;;;2.97;;
60502;SDS011;51448;51.660;5.824;2022-09-09T06:06:46;10.75;;;3.10;;
60502;SDS011;51448;51.660;5.824;2022-09-09T06:09:17;9.95;;;3.20;;
60502;SDS011;51448;51.660;5.824;2022-09-09T06:11:45;13.43;;;3.55;;
60502;SDS011;51448;51.660;5.824;2022-09-09T06:14:14;14.50;;;3.30;;
60502;SDS011;51448;51.660;5.824;2022-09-09T06:16:45;9.18;;;3.45;;
60502;SDS011;51448;51.660;5.824;2022-09-09T06:19:25;10.43;;;3.38;;
60502;SDS011;51448;51.660;5.824;2022-09-09T06:21:55;10.85;;;3.40;;
60502;SDS011;51448;51.660;5.824;2022-09-09T06:24:23;13.90;;;3.80;;
60502;SDS011;51448;51.660;5.824;2022-09-09T06:26:50;14.52;;;3.53;;
60502;SDS011;51448;51.660;5.824;2022-09-09T06:29:23;12.77;;;3.33;;
60502;SDS011;51448;51.660;5.824;2022-09-09T06:31:52;10.75;;;2.97;;
60502;SDS011;51448;51.660;5.824;2022-09-09T06:34:23;10.53;;;3.50;;
60502;SDS011;51448;51.660;5.824;2022-09-09T06:36:54;14.00;;;3.55;;
60502;SDS011;51448;51.660;5.824;2022-09-09T06:39:22;9.70;;;3.40;;
60502;SDS011;51448;51.660;5.824;2022-09-09T06:42:01;12.63;;;3.40;;
60502;SDS011;51448;51.660;5.824;2022-09-09T06:44:52;11.57;;;3.08;;
60502;SDS011;51448;51.660;5.824;2022-09-09T06:47:56;9.30;;;3.33;;
60502;SDS011;51448;51.660;5.824;2022-09-09T06:50:24;12.85;;;3.92;;
60502;SDS011;51448;51.660;5.824;2022-09-09T06:52:52;8.85;;;3.33;;
60502;SDS011;51448;51.660;5.824;2022-09-09T06:55:21;9.38;;;3.05;;
60502;SDS011;51448;51.660;5.824;2022-09-09T06:57:49;12.68;;;3.47;;
60502;SDS011;51448;51.660;5.824;2022-09-09T07:06:26;11.15;;;3.35;;
60502;SDS011;51448;51.660;5.824;2022-09-09T07:09:17;12.40;;;3.38;;
60502;SDS011;51448;51.660;5.824;2022-09-09T07:11:49;10.40;;;3.15;;
60502;SDS011;51448;51.660;5.824;2022-09-09T07:14:25;11.45;;;3.00;;
60502;SDS011;51448;51.660;5.824;2022-09-09T07:17:09;10.80;;;3.03;;
60502;SDS011;51448;51.660;5.824;2022-09-09T07:19:43;10.88;;;3.17;;
60502;SDS011;51448;51.660;5.824;2022-09-09T07:22:10;10.50;;;3.30;;
60502;SDS011;51448;51.660;5.824;2022-09-09T07:24:41;13.27;;;3.60;;
60502;SDS011;51448;51.660;5.824;2022-09-09T07:27:09;10.18;;;3.13;;
60502;SDS011;51448;51.660;5.824;2022-09-09T07:29:37;13.57;;;3.22;;
60502;SDS011;51448;51.660;5.824;2022-09-09T07:32:06;11.65;;;3.05;;
60502;SDS011;51448;51.660;5.824;2022-09-09T07:34:36;11.68;;;3.25;;
60502;SDS011;51448;51.660;5.824;2022-09-09T07:37:14;8.80;;;2.70;;
60502;SDS011;51448;51.660;5.824;2022-09-09T07:39:43;11.73;;;3.60;;
60502;SDS011;51448;51.660;5.824;2022-09-09T07:42:12;11.40;;;3.33;;
60502;SDS011;51448;51.660;5.824;2022-09-09T07:44:40;9.90;;;3.28;;
60502;SDS011;51448;51.660;5.824;2022-09-09T07:47:15;9.48;;;2.65;;
60502;SDS011;51448;51.660;5.824;2022-09-09T07:49:47;7.43;;;2.63;;
60502;SDS011;51448;51.660;5.824;2022-09-09T07:52:21;9.13;;;2.67;;
60502;SDS011;51448;51.660;5.824;2022-09-09T07:54:53;11.75;;;2.30;;
60502;SDS011;51448;51.660;5.824;2022-09-09T07:57:20;9.98;;;2.70;;
60502;SDS011;51448;51.660;5.824;2022-09-09T07:59:51;10.80;;;2.88;;
60502;SDS011;51448;51.660;5.824;2022-09-09T08:02:19;11.63;;;2.53;;
60502;SDS011;51448;51.660;5.824;2022-09-09T08:04:47;11.85;;;2.45;;
60502;SDS011;51448;51.660;5.824;2022-09-09T08:07:17;10.50;;;2.90;;
60502;SDS011;51448;51.660;5.824;2022-09-09T08:09:50;10.73;;;2.38;;
60502;SDS011;51448;51.660;5.824;2022-09-09T08:12:24;10.50;;;2.67;;
60502;SDS011;51448;51.660;5.824;2022-09-09T08:14:53;12.98;;;2.45;;
60502;SDS011;51448;51.660;5.824;2022-09-09T08:17:24;9.52;;;2.33;;
60502;SDS011;51448;51.660;5.824;2022-09-09T08:19:52;8.65;;;2.30;;
60502;SDS011;51448;51.660;5.824;2022-09-09T08:22:25;10.63;;;2.35;;
60502;SDS011;51448;51.660;5.824;2022-09-09T08:24:54;9.07;;;2.30;;
60502;SDS011;51448;51.660;5.824;2022-09-09T08:27:23;9.60;;;2.08;;
60502;SDS011;51448;51.660;5.824;2022-09-09T08:29:53;9.65;;;2.15;;
60502;SDS011;51448;51.660;5.824;2022-09-09T08:32:22;8.52;;;1.80;;
60502;SDS011;51448;51.660;5.824;2022-09-09T08:34:50;9.93;;;2.10;;
60502;SDS011;51448;51.660;5.824;2022-09-09T08:37:23;9.88;;;1.98;;
60502;SDS011;51448;51.660;5.824;2022-09-09T08:39:50;9.05;;;1.77;;
60502;SDS011;51448;51.660;5.824;2022-09-09T08:45:00;14.23;;;2.17;;
60502;SDS011;51448;51.660;5.824;2022-09-09T08:50:38;8.00;;;1.90;;
60502;SDS011;51448;51.660;5.824;2022-09-09T08:53:27;11.45;;;2.22;;
60502;SDS011;51448;51.660;5.824;2022-09-09T08:56:09;10.25;;;2.13;;
60502;SDS011;51448;51.660;5.824;2022-09-09T08:58:51;10.88;;;1.65;;
60502;SDS011;51448;51.660;5.824;2022-09-09T09:19:04;9.35;;;2.25;;
60502;SDS011;51448;51.660;5.824;2022-09-09T09:21:54;8.93;;;2.30;;
60502;SDS011;51448;51.660;5.824;2022-09-09T09:25:12;10.23;;;1.80;;
60502;SDS011;51448;51.660;5.824;2022-09-09T09:31:19;7.90;;;1.95;;
60502;SDS011;51448;51.660;5.824;2022-09-09T09:33:54;7.97;;;1.80;;
60502;SDS011;51448;51.660;5.824;2022-09-09T09:37:23;10.52;;;2.03;;
60502;SDS011;51448;51.660;5.824;2022-09-09T09:40:59;10.48;;;1.90;;
60502;SDS011;51448;51.660;5.824;2022-09-09T09:43:34;10.55;;;2.13;;
60502;SDS011;51448;51.660;5.824;2022-09-09T09:46:19;8.68;;;1.75;;
60502;SDS011;51448;51.660;5.824;2022-09-09T09:51:29;9.68;;;1.95;;
60502;SDS011;51448;51.660;5.824;2022-09-09T09:54:03;9.45;;;2.28;;
60502;SDS011;51448;51.660;5.824;2022-09-09T09:59:45;8.80;;;1.70;;
60502;SDS011;51448;51.660;5.824;2022-09-09T10:02:31;8.93;;;1.75;;
60502;SDS011;51448;51.660;5.824;2022-09-09T10:05:35;9.30;;;1.95;;
60502;SDS011;51448;51.660;5.824;2022-09-09T10:08:45;11.70;;;1.67;;
60502;SDS011;51448;51.660;5.824;2022-09-09T10:19:40;11.27;;;2.05;;
60502;SDS011;51448;51.660;5.824;2022-09-09T10:22:26;8.70;;;1.60;;
60502;SDS011;51448;51.660;5.824;2022-09-09T10:34:11;7.68;;;2.15;;
60502;SDS011;51448;51.660;5.824;2022-09-09T10:36:57;8.10;;;1.52;;
60502;SDS011;51448;51.660;5.824;2022-09-09T10:39:37;10.90;;;2.05;;
60502;SDS011;51448;51.660;5.824;2022-09-09T10:42:12;8.75;;;1.52;;
60502;SDS011;51448;51.660;5.824;2022-09-09T10:44:45;8.48;;;1.63;;
60502;SDS011;51448;51.660;5.824;2022-09-09T10:50:15;7.93;;;1.48;;
60502;SDS011;51448;51.660;5.824;2022-09-09T10:56:11;8.33;;;1.70;;
60502;SDS011;51448;51.660;5.824;2022-09-09T11:01:27;8.85;;;1.73;;
60502;SDS011;51448;51.660;5.824;2022-09-09T11:06:49;6.28;;;1.67;;
60502;SDS011;51448;51.660;5.824;2022-09-09T11:09:23;5.25;;;1.52;;
60502;SDS011;51448;51.660;5.824;2022-09-09T11:11:58;6.95;;;1.60;;
60502;SDS011;51448;51.660;5.824;2022-09-09T11:14:39;9.65;;;1.95;;
60502;SDS011;51448;51.660;5.824;2022-09-09T11:17:17;7.07;;;1.75;;
60502;SDS011;51448;51.660;5.824;2022-09-09T11:19:51;9.38;;;1.88;;
60502;SDS011;51448;51.660;5.824;2022-09-09T11:22:27;12.02;;;2.10;;
60502;SDS011;51448;51.660;5.824;2022-09-09T11:25:24;6.32;;;2.10;;
60502;SDS011;51448;51.660;5.824;2022-09-09T11:40:26;9.88;;;3.03;;
60502;SDS011;51448;51.660;5.824;2022-09-09T11:43:02;9.95;;;2.55;;
60502;SDS011;51448;51.660;5.824;2022-09-09T11:45:37;6.93;;;2.28;;
60502;SDS011;51448;51.660;5.824;2022-09-09T11:51:03;8.77;;;2.20;;
60502;SDS011;51448;51.660;5.824;2022-09-09T11:53:55;7.78;;;2.42;;
60502;SDS011;51448;51.660;5.824;2022-09-09T11:59:20;6.97;;;1.92;;
60502;SDS011;51448;51.660;5.824;2022-09-09T12:04:30;7.85;;;2.20;;
60502;SDS011;51448;51.660;5.824;2022-09-09T12:07:05;4.85;;;1.33;;
60502;SDS011;51448;51.660;5.824;2022-09-09T12:12:49;5.60;;;1.38;;
60502;SDS011;51448;51.660;5.824;2022-09-09T12:15:19;6.28;;;1.20;;
60502;SDS011;51448;51.660;5.824;2022-09-09T12:17:52;5.15;;;1.40;;
60502;SDS011;51448;51.660;5.824;2022-09-09T12:20:31;5.88;;;1.38;;
60502;SDS011;51448;51.660;5.824;2022-09-09T12:29:29;5.22;;;1.55;;
60502;SDS011;51448;51.660;5.824;2022-09-09T12:32:22;6.90;;;1.83;;
60502;SDS011;51448;51.660;5.824;2022-09-09T12:34:54;6.00;;;1.80;;
60502;SDS011;51448;51.660;5.824;2022-09-09T12:37:33;6.10;;;2.05;;
60502;SDS011;51448;51.660;5.824;2022-09-09T12:42:48;8.68;;;2.72;;
60502;SDS011;51448;51.660;5.824;2022-09-09T12:45:30;11.45;;;3.58;;
60502;SDS011;51448;51.660;5.824;2022-09-09T12:48:09;9.95;;;3.13;;
60502;SDS011;51448;51.660;5.824;2022-09-09T12:50:58;9.43;;;2.25;;
60502;SDS011;51448;51.660;5.824;2022-09-09T12:53:55;7.28;;;2.15;;
60502;SDS011;51448;51.660;5.824;2022-09-09T12:56:32;10.02;;;2.95;;
60502;SDS011;51448;51.660;5.824;2022-09-09T12:59:23;7.20;;;2.20;;
60502;SDS011;51448;51.660;5.824;2022-09-09T13:02:11;5.88;;;2.28;;
60502;SDS011;51448;51.660;5.824;2022-09-09T13:05:36;7.63;;;1.98;;
60502;SDS011;51448;51.660;5.824;2022-09-09T13:08:08;5.70;;;1.95;;
60502;SDS011;51448;51.660;5.824;2022-09-09T13:10:49;6.80;;;2.00;;
60502;SDS011;51448;51.660;5.824;2022-09-09T13:13:42;8.18;;;2.35;;
60502;SDS011;51448;51.660;5.824;2022-09-09T13:16:22;6.63;;;2.10;;
60502;SDS011;51448;51.660;5.824;2022-09-09T13:19:15;8.30;;;2.28;;
60502;SDS011;51448;51.660;5.824;2022-09-09T13:21:51;6.55;;;2.08;;
60502;SDS011;51448;51.660;5.824;2022-09-09T13:24:24;7.47;;;2.08;;
60502;SDS011;51448;51.660;5.824;2022-09-09T13:27:19;7.35;;;2.17;;
60502;SDS011;51448;51.660;5.824;2022-09-09T13:29:58;8.57;;;2.33;;
60502;SDS011;51448;51.660;5.824;2022-09-09T13:32:27;8.23;;;1.98;;
60502;SDS011;51448;51.660;5.824;2022-09-09T13:34:59;9.60;;;1.90;;
60502;SDS011;51448;51.660;5.824;2022-09-09T13:37:38;6.15;;;2.00;;
60502;SDS011;51448;51.660;5.824;2022-09-09T13:56:02;6.90;;;2.38;;
60502;SDS011;51448;51.660;5.824;2022-09-09T13:58:30;8.05;;;2.38;;
60502;SDS011;51448;51.660;5.824;2022-09-09T14:00:57;9.43;;;2.88;;
60502;SDS011;51448;51.660;5.824;2022-09-09T14:03:25;7.45;;;2.67;;
60502;SDS011;51448;51.660;5.824;2022-09-09T14:05:52;9.55;;;3.05;;
60502;SDS011;51448;51.660;5.824;2022-09-09T14:08:22;5.88;;;2.10;;
60502;SDS011;51448;51.660;5.824;2022-09-09T14:10:53;8.25;;;2.67;;
60502;SDS011;51448;51.660;5.824;2022-09-09T14:13:22;6.35;;;2.25;;
60502;SDS011;51448;51.660;5.824;2022-09-09T14:15:50;7.63;;;2.42;;
60502;SDS011;51448;51.660;5.824;2022-09-09T14:18:17;9.02;;;2.72;;
60502;SDS011;51448;51.660;5.824;2022-09-09T14:20:45;6.53;;;2.65;;
60502;SDS011;51448;51.660;5.824;2022-09-09T14:23:12;6.10;;;2.38;;
60502;SDS011;51448;51.660;5.824;2022-09-09T14:25:40;7.70;;;2.20;;
60502;SDS011;51448;51.660;5.824;2022-09-09T14:28:10;6.35;;;1.45;;
60502;SDS011;51448;51.660;5.824;2022-09-09T14:30:40;5.97;;;1.77;;
60502;SDS011;51448;51.660;5.824;2022-09-09T14:33:10;6.55;;;1.63;;
60502;SDS011;51448;51.660;5.824;2022-09-09T14:35:42;4.45;;;1.13;;
60502;SDS011;51448;51.660;5.824;2022-09-09T14:38:12;4.38;;;1.42;;
60502;SDS011;51448;51.660;5.824;2022-09-09T14:40:44;5.93;;;1.20;;
60502;SDS011;51448;51.660;5.824;2022-09-09T14:43:13;4.55;;;1.23;;
60502;SDS011;51448;51.660;5.824;2022-09-09T14:45:41;5.47;;;1.23;;
60502;SDS011;51448;51.660;5.824;2022-09-09T14:48:10;6.43;;;1.50;;
60502;SDS011;51448;51.660;5.824;2022-09-09T14:50:38;5.05;;;1.58;;
60502;SDS011;51448;51.660;5.824;2022-09-09T14:53:07;5.78;;;1.20;;
60502;SDS011;51448;51.660;5.824;2022-09-09T14:55:36;5.25;;;1.23;;
60502;SDS011;51448;51.660;5.824;2022-09-09T14:58:04;6.63;;;1.70;;
60502;SDS011;51448;51.660;5.824;2022-09-09T15:00:33;5.90;;;1.60;;
60502;SDS011;51448;51.660;5.824;2022-09-09T15:03:01;5.53;;;1.30;;
60502;SDS011;51448;51.660;5.824;2022-09-09T15:05:28;6.32;;;1.48;;
60502;SDS011;51448;51.660;5.824;2022-09-09T15:07:56;5.32;;;1.45;;
60502;SDS011;51448;51.660;5.824;2022-09-09T15:10:23;4.93;;;1.15;;
60502;SDS011;51448;51.660;5.824;2022-09-09T15:12:53;5.90;;;1.55;;
60502;SDS011;51448;51.660;5.824;2022-09-09T15:15:21;8.95;;;1.52;;
60502;SDS011;51448;51.660;5.824;2022-09-09T15:17:48;5.07;;;1.05;;
60502;SDS011;51448;51.660;5.824;2022-09-09T15:20:16;5.07;;;1.35;;
60502;SDS011;51448;51.660;5.824;2022-09-09T15:22:43;6.85;;;1.27;;
60502;SDS011;51448;51.660;5.824;2022-09-09T15:25:11;3.42;;;1.02;;
60502;SDS011;51448;51.660;5.824;2022-09-09T15:27:51;6.22;;;1.33;;
60502;SDS011;51448;51.660;5.824;2022-09-09T15:30:28;6.00;;;1.40;;
60502;SDS011;51448;51.660;5.824;2022-09-09T15:32:59;5.97;;;1.50;;
60502;SDS011;51448;51.660;5.824;2022-09-09T15:35:39;5.88;;;1.20;;
60502;SDS011;51448;51.660;5.824;2022-09-09T15:38:14;4.97;;;1.45;;
60502;SDS011;51448;51.660;5.824;2022-09-09T15:40:43;5.28;;;1.42;;
60502;SDS011;51448;51.660;5.824;2022-09-09T15:43:14;5.35;;;1.30;;
60502;SDS011;51448;51.660;5.824;2022-09-09T15:45:42;4.93;;;1.27;;
60502;SDS011;51448;51.660;5.824;2022-09-09T15:48:10;6.55;;;1.50;;
60502;SDS011;51448;51.660;5.824;2022-09-09T15:50:38;5.25;;;1.38;;
60502;SDS011;51448;51.660;5.824;2022-09-09T15:53:06;5.97;;;1.38;;
60502;SDS011;51448;51.660;5.824;2022-09-09T15:55:36;6.63;;;1.30;;
60502;SDS011;51448;51.660;5.824;2022-09-09T15:58:04;7.20;;;1.20;;
60502;SDS011;51448;51.660;5.824;2022-09-09T16:01:13;2.50;;;0.63;;
60502;SDS011;51448;51.660;5.824;2022-09-09T16:04:34;2.72;;;0.82;;
60502;SDS011;51448;51.660;5.824;2022-09-09T16:13:10;1.77;;;0.40;;
60502;SDS011;51448;51.660;5.824;2022-09-09T16:15:40;2.88;;;0.98;;
60502;SDS011;51448;51.660;5.824;2022-09-09T16:18:07;4.10;;;0.60;;
60502;SDS011;51448;51.660;5.824;2022-09-09T16:20:35;2.97;;;0.50;;
60502;SDS011;51448;51.660;5.824;2022-09-09T16:23:02;2.65;;;0.60;;
60502;SDS011;51448;51.660;5.824;2022-09-09T16:25:30;3.50;;;0.70;;
60502;SDS011;51448;51.660;5.824;2022-09-09T16:27:58;2.58;;;0.63;;
60502;SDS011;51448;51.660;5.824;2022-09-09T16:30:25;3.28;;;0.68;;
60502;SDS011;51448;51.660;5.824;2022-09-09T16:32:54;4.90;;;0.68;;
60502;SDS011;51448;51.660;5.824;2022-09-09T16:35:21;2.45;;;0.70;;
60502;SDS011;51448;51.660;5.824;2022-09-09T16:37:49;2.25;;;0.60;;
60502;SDS011;51448;51.660;5.824;2022-09-09T16:40:16;2.50;;;0.90;;
60502;SDS011;51448;51.660;5.824;2022-09-09T16:42:44;3.33;;;0.80;;
60502;SDS011;51448;51.660;5.824;2022-09-09T16:45:11;2.58;;;0.90;;
60502;SDS011;51448;51.660;5.824;2022-09-09T16:47:39;3.58;;;0.80;;
60502;SDS011;51448;51.660;5.824;2022-09-09T16:50:07;3.10;;;1.00;;
60502;SDS011;51448;51.660;5.824;2022-09-09T16:52:35;1.92;;;0.70;;
60502;SDS011;51448;51.660;5.824;2022-09-09T16:55:03;2.97;;;0.90;;
60502;SDS011;51448;51.660;5.824;2022-09-09T16:57:30;2.63;;;0.80;;
60502;SDS011;51448;51.660;5.824;2022-09-09T16:59:58;2.17;;;0.70;;
60502;SDS011;51448;51.660;5.824;2022-09-09T17:02:26;3.13;;;0.90;;
60502;SDS011;51448;51.660;5.824;2022-09-09T17:04:53;3.03;;;0.80;;
60502;SDS011;51448;51.660;5.824;2022-09-09T17:07:21;3.83;;;0.80;;
60502;SDS011;51448;51.660;5.824;2022-09-09T17:09:49;3.15;;;0.98;;
60502;SDS011;51448;51.660;5.824;2022-09-09T17:12:17;4.38;;;1.40;;
60502;SDS011;51448;51.660;5.824;2022-09-09T17:14:45;2.85;;;0.90;;
60502;SDS011;51448;51.660;5.824;2022-09-09T17:17:12;3.08;;;1.20;;
60502;SDS011;51448;51.660;5.824;2022-09-09T17:19:57;3.13;;;1.27;;
60502;SDS011;51448;51.660;5.824;2022-09-09T17:22:27;3.38;;;1.20;;
60502;SDS011;51448;51.660;5.824;2022-09-09T17:24:55;4.70;;;1.60;;
60502;SDS011;51448;51.660;5.824;2022-09-09T17:27:23;5.50;;;1.52;;
60502;SDS011;51448;51.660;5.824;2022-09-09T17:29:50;4.95;;;1.80;;
60502;SDS011;51448;51.660;5.824;2022-09-09T17:32:18;5.18;;;1.65;;
60502;SDS011;51448;51.660;5.824;2022-09-09T17:34:47;6.57;;;1.90;;
60502;SDS011;51448;51.660;5.824;2022-09-09T17:37:15;5.05;;;1.55;;
60502;SDS011;51448;51.660;5.824;2022-09-09T17:39:42;5.30;;;1.60;;
60502;SDS011;51448;51.660;5.824;2022-09-09T17:42:10;5.00;;;1.48;;
60502;SDS011;51448;51.660;5.824;2022-09-09T17:44:37;4.22;;;1.48;;
60502;SDS011;51448;51.660;5.824;2022-09-09T17:47:05;4.68;;;1.85;;
60502;SDS011;51448;51.660;5.824;2022-09-09T17:49:33;4.20;;;1.35;;
60502;SDS011;51448;51.660;5.824;2022-09-09T17:52:01;5.18;;;1.63;;
60502;SDS011;51448;51.660;5.824;2022-09-09T17:54:29;4.32;;;1.60;;
60502;SDS011;51448;51.660;5.824;2022-09-09T17:56:57;4.15;;;1.40;;
60502;SDS011;51448;51.660;5.824;2022-09-09T17:59:25;3.03;;;1.27;;
60502;SDS011;51448;51.660;5.824;2022-09-09T18:01:52;5.18;;;1.73;;
60502;SDS011;51448;51.660;5.824;2022-09-09T18:04:20;4.30;;;1.40;;
60502;SDS011;51448;51.660;5.824;2022-09-09T18:06:48;4.68;;;1.48;;
60502;SDS011;51448;51.660;5.824;2022-09-09T18:09:19;3.80;;;1.30;;
60502;SDS011;51448;51.660;5.824;2022-09-09T18:11:52;4.20;;;1.20;;
60502;SDS011;51448;51.660;5.824;2022-09-09T18:14:27;3.35;;;1.48;;
60502;SDS011;51448;51.660;5.824;2022-09-09T18:16:58;3.67;;;1.00;;
60502;SDS011;51448;51.660;5.824;2022-09-09T18:19:27;4.47;;;1.23;;
60502;SDS011;51448;51.660;5.824;2022-09-09T18:24:29;3.13;;;1.30;;
60502;SDS011;51448;51.660;5.824;2022-09-09T18:26:57;4.70;;;1.20;;
60502;SDS011;51448;51.660;5.824;2022-09-09T18:29:25;3.22;;;1.20;;
60502;SDS011;51448;51.660;5.824;2022-09-09T18:31:53;5.28;;;1.25;;
60502;SDS011;51448;51.660;5.824;2022-09-09T18:34:22;3.67;;;1.05;;
60502;SDS011;51448;51.660;5.824;2022-09-09T18:36:54;3.28;;;1.40;;
60502;SDS011;51448;51.660;5.824;2022-09-09T18:39:24;3.42;;;1.30;;